Time;durP1;ratioP1;P1;durP2;ratioP2;P2;SDS_P1;SDS_P2;PMS_P1;PMS_P2;Temp;Humidity;BMP_temperature;BMP_pressure;BME280_temperature;BME280_humidity;BME280_pressure;Samples;Min_cycle;Max_cycle;Signal;HPM_P1;HPM_P2
2022/09/09 00:00:48;;;;;;;3.30;2.80;;;;;;;;;;1669567;29;22620;-63
2022/09/09 00:01:51;;;;;;;5.55;2.90;;;;;;;;;;1670000;29;21611;-62
2022/09/09 00:02:52;;;;;;;2.85;2.65;;;;;;;;;;1669287;29;22027;-63
2022/09/09 00:03:51;;;;;;;4.15;2.75;;;;;;;;;;1669559;29;22053;-63
2022/09/09 00:04:44;;;;;;;3.40;3.10;;;;;;;;;;1667979;29;21896;-63
2022/09/09 00:05:47;;;;;;;3.22;2.88;;;;;;;;;;1668370;29;21559;-62
2022/09/09 00:06:46;;;;;;;3.10;2.75;;;;;;;;;;1671097;29;22542;-62
2022/09/09 00:07:47;;;;;;;3.10;2.78;;;;;;;;;;1669155;29;22485;-62
2022/09/09 00:08:52;;;;;;;6.35;2.83;;;;;;;;;;1663340;29;22079;-62
2022/09/09 00:09:48;;;;;;;2.75;2.58;;;;;;;;;;1667896;29;21618;-62
2022/09/09 00:10:41;;;;;;;2.95;2.75;;;;;;;;;;1668770;29;21589;-62
2022/09/09 00:11:42;;;;;;;4.10;3.17;;;;;;;;;;1670600;29;21577;-62
2022/09/09 00:12:41;;;;;;;2.63;2.40;;;;;;;;;;1668290;29;21624;-62
2022/09/09 00:13:40;;;;;;;3.92;3.15;;;;;;;;;;1669658;29;21658;-62
2022/09/09 00:14:42;;;;;;;3.47;2.97;;;;;;;;;;1669750;29;21967;-62
2022/09/09 00:15:41;;;;;;;4.10;2.80;;;;;;;;;;1667828;29;21619;-62
2022/09/09 00:16:36;;;;;;;3.85;2.90;;;;;;;;;;1669463;29;22479;-62
2022/09/09 00:17:39;;;;;;;3.63;3.03;;;;;;;;;;1670097;29;22061;-63
2022/09/09 00:18:42;;;;;;;2.80;2.60;;;;;;;;;;1667193;29;22735;-62
2022/09/09 00:19:41;;;;;;;2.97;2.65;;;;;;;;;;1668479;29;21796;-63
2022/09/09 00:20:42;;;;;;;2.72;2.53;;;;;;;;;;1667242;29;21656;-62
2022/09/09 00:21:36;;;;;;;2.90;2.70;;;;;;;;;;1669937;29;22495;-63
2022/09/09 00:22:30;;;;;;;3.20;3.00;;;;;;;;;;1670730;29;21724;-63
2022/09/09 00:23:26;;;;;;;3.65;2.67;;;;;;;;;;1667705;29;22076;-63
2022/09/09 00:24:25;;;;;;;2.63;2.20;;;;;;;;;;1667554;29;21933;-63
2022/09/09 00:25:24;;;;;;;3.05;2.50;;;;;;;;;;1671026;29;22288;-63
2022/09/09 00:26:29;;;;;;;2.85;2.58;;;;;;;;;;1668032;29;21612;-63
2022/09/09 00:27:32;;;;;;;4.88;2.30;;;;;;;;;;1663516;29;22453;-64
2022/09/09 00:28:27;;;;;;;3.45;2.78;;;;;;;;;;1664586;29;21614;-63
2022/09/09 00:29:29;;;;;;;6.30;2.80;;;;;;;;;;1665089;29;21865;-63
2022/09/09 00:30:25;;;;;;;2.70;2.50;;;;;;;;;;1669229;29;22300;-63
2022/09/09 00:31:22;;;;;;;3.03;2.67;;;;;;;;;;1669802;29;21653;-63
2022/09/09 00:32:17;;;;;;;3.20;2.90;;;;;;;;;;1668174;29;22095;-63
2022/09/09 00:33:14;;;;;;;2.92;2.50;;;;;;;;;;1669755;29;21845;-64
2022/09/09 00:34:13;;;;;;;3.08;2.35;;;;;;;;;;1669550;29;21644;-63
2022/09/09 00:35:18;;;;;;;4.13;2.47;;;;;;;;;;1668524;29;22018;-63
2022/09/09 00:36:15;;;;;;;2.58;2.38;;;;;;;;;;1664126;29;22273;-64
2022/09/09 00:37:09;;;;;;;4.68;2.08;;;;;;;;;;1665326;29;21637;-63
2022/09/09 00:38:06;;;;;;;5.60;2.53;;;;;;;;;;1669852;29;22071;-64
2022/09/09 00:39:01;;;;;;;3.65;2.75;;;;;;;;;;1669577;29;21731;-63
2022/09/09 00:39:59;;;;;;;2.63;2.42;;;;;;;;;;1668518;29;21861;-63
2022/09/09 00:40:53;;;;;;;2.40;2.03;;;;;;;;;;1671183;29;21606;-63
2022/09/09 00:42:03;;;;;;;2.58;2.30;;;;;;;;;;1669663;29;21976;-63
2022/09/09 00:43:13;;;;;;;2.60;2.40;;;;;;;;;;1666896;29;21634;-64
2022/09/09 00:44:29;;;;;;;2.67;2.47;;;;;;;;;;1663396;29;21714;-62
2022/09/09 00:45:52;;;;;;;2.53;2.33;;;;;;;;;;1666263;29;21843;-63
2022/09/09 00:46:58;;;;;;;3.60;2.85;;;;;;;;;;1662993;29;21573;-64
2022/09/09 00:47:51;;;;;;;2.67;2.45;;;;;;;;;;1665671;29;22084;-63
2022/09/09 00:48:53;;;;;;;3.05;2.75;;;;;;;;;;1670526;29;21655;-63
2022/09/09 00:50:01;;;;;;;4.97;2.45;;;;;;;;;;1668054;29;21996;-62
2022/09/09 00:50:58;;;;;;;3.13;2.88;;;;;;;;;;1667583;29;22286;-63
2022/09/09 00:52:01;;;;;;;4.40;2.47;;;;;;;;;;1671128;29;21866;-63
2022/09/09 00:53:06;;;;;;;2.85;2.65;;;;;;;;;;1668637;29;21758;-63
2022/09/09 00:54:18;;;;;;;2.50;2.30;;;;;;;;;;1669000;29;21642;-62
2022/09/09 00:55:18;;;;;;;2.95;2.53;;;;;;;;;;1669736;29;22402;-62
2022/09/09 00:56:14;;;;;;;3.10;2.90;;;;;;;;;;1667383;29;22462;-62
2022/09/09 00:57:24;;;;;;;3.88;2.95;;;;;;;;;;1670788;29;21630;-63
2022/09/09 00:58:15;;;;;;;5.80;2.65;;;;;;;;;;1668811;29;21612;-63
2022/09/09 00:59:20;;;;;;;2.65;2.45;;;;;;;;;;1668560;29;21821;-62
2022/09/09 01:00:22;;;;;;;3.20;2.95;;;;;;;;;;1668401;29;21608;-62
2022/09/09 01:01:15;;;;;;;2.75;2.45;;;;;;;;;;1670889;29;22434;-62
2022/09/09 01:02:18;;;;;;;2.90;2.70;;;;;;;;;;1669138;29;21891;-63
2022/09/09 01:03:35;;;;;;;3.05;2.38;;;;;;;;;;1669713;29;21640;-62
2022/09/09 01:04:33;;;;;;;3.67;2.67;;;;;;;;;;1665577;29;21739;-62
2022/09/09 01:05:36;;;;;;;4.60;2.70;;;;;;;;;;1668580;29;21635;-62
2022/09/09 01:06:31;;;;;;;3.35;2.72;;;;;;;;;;1669760;29;22177;-62
2022/09/09 01:07:24;;;;;;;5.30;2.50;;;;;;;;;;1668524;29;22298;-62
2022/09/09 01:08:38;;;;;;;3.25;2.95;;;;;;;;;;1666693;29;22394;-63
2022/09/09 01:09:39;;;;;;;3.35;2.72;;;;;;;;;;1667637;29;22086;-63
2022/09/09 01:10:43;;;;;;;2.78;2.58;;;;;;;;;;1668575;29;22341;-63
2022/09/09 01:11:51;;;;;;;3.05;2.45;;;;;;;;;;1669934;29;22728;-63
2022/09/09 01:12:46;;;;;;;3.28;2.80;;;;;;;;;;1668209;29;21646;-62
2022/09/09 01:13:39;;;;;;;2.95;2.70;;;;;;;;;;1668768;29;21597;-63
2022/09/09 01:14:40;;;;;;;3.03;2.78;;;;;;;;;;1670665;29;21818;-63
2022/09/09 01:15:33;;;;;;;3.70;2.75;;;;;;;;;;1667514;29;22610;-63
2022/09/09 01:16:26;;;;;;;3.58;2.45;;;;;;;;;;1669077;29;21592;-63
2022/09/09 01:17:23;;;;;;;2.67;2.47;;;;;;;;;;1669613;29;21608;-63
2022/09/09 01:18:18;;;;;;;2.85;2.65;;;;;;;;;;1667381;29;21817;-62
2022/09/09 01:19:21;;;;;;;5.50;2.63;;;;;;;;;;1669900;29;21581;-62
2022/09/09 01:20:17;;;;;;;3.03;2.72;;;;;;;;;;1668522;29;21929;-62
2022/09/09 01:21:22;;;;;;;2.97;2.58;;;;;;;;;;1668647;29;21632;-63
2022/09/09 01:22:26;;;;;;;3.65;3.20;;;;;;;;;;1663541;29;22380;-63
2022/09/09 01:23:43;;;;;;;2.83;2.58;;;;;;;;;;1664771;29;22561;-62
2022/09/09 01:24:42;;;;;;;2.80;2.60;;;;;;;;;;1667136;29;21627;-63
2022/09/09 01:26:19;;;;;;;4.32;2.80;;;;;;;;;;1668781;29;22638;-62
2022/09/09 01:27:11;;;;;;;5.57;2.95;;;;;;;;;;1668713;29;22193;-63
2022/09/09 01:28:09;;;;;;;4.05;3.22;;;;;;;;;;1669390;29;21595;-62
2022/09/09 01:29:01;;;;;;;4.20;3.13;;;;;;;;;;1668669;29;22458;-62
2022/09/09 01:29:53;;;;;;;3.22;2.90;;;;;;;;;;1667667;29;21784;-63
2022/09/09 01:30:44;;;;;;;3.65;3.03;;;;;;;;;;1670927;29;22454;-62
2022/09/09 01:31:41;;;;;;;5.38;3.05;;;;;;;;;;1669571;29;22276;-63
2022/09/09 01:32:42;;;;;;;2.72;2.53;;;;;;;;;;1667730;29;21733;-63
2022/09/09 01:33:34;;;;;;;3.30;3.05;;;;;;;;;;1669783;29;22556;-63
2022/09/09 01:34:30;;;;;;;3.05;2.65;;;;;;;;;;1668649;29;22479;-63
2022/09/09 01:35:41;;;;;;;3.40;3.10;;;;;;;;;;1668808;29;21613;-62
2022/09/09 01:36:39;;;;;;;4.22;3.15;;;;;;;;;;1669612;29;21645;-63
2022/09/09 01:37:31;;;;;;;2.83;2.63;;;;;;;;;;1667003;29;21952;-62
2022/09/09 01:38:24;;;;;;;3.88;3.10;;;;;;;;;;1669291;29;21611;-63
2022/09/09 01:39:16;;;;;;;3.03;2.72;;;;;;;;;;1668005;29;21641;-62
2022/09/09 01:40:09;;;;;;;9.65;3.08;;;;;;;;;;1667586;29;21664;-62
2022/09/09 01:41:01;;;;;;;3.70;3.33;;;;;;;;;;1669682;29;21714;-62
2022/09/09 01:41:56;;;;;;;3.90;3.42;;;;;;;;;;1669692;29;21664;-63
2022/09/09 01:42:48;;;;;;;3.03;2.75;;;;;;;;;;1666897;29;22009;-62
2022/09/09 01:43:39;;;;;;;3.30;3.00;;;;;;;;;;1669176;29;21838;-62
2022/09/09 01:44:32;;;;;;;3.10;2.90;;;;;;;;;;1669503;29;21607;-62
2022/09/09 01:45:24;;;;;;;3.65;3.10;;;;;;;;;;1667497;29;22445;-63
2022/09/09 01:46:17;;;;;;;2.58;2.38;;;;;;;;;;1669475;29;21908;-63
2022/09/09 01:47:10;;;;;;;2.60;2.40;;;;;;;;;;1669457;29;21836;-63
2022/09/09 01:48:02;;;;;;;3.97;3.20;;;;;;;;;;1667415;29;22931;-63
2022/09/09 01:48:56;;;;;;;3.33;3.08;;;;;;;;;;1667528;29;21643;-62
2022/09/09 01:49:47;;;;;;;4.25;2.97;;;;;;;;;;1667017;29;22428;-64
2022/09/09 01:50:39;;;;;;;3.70;3.40;;;;;;;;;;1668239;29;22607;-62
2022/09/09 01:51:31;;;;;;;4.03;3.45;;;;;;;;;;1670012;29;21679;-62
2022/09/09 01:52:23;;;;;;;3.75;2.80;;;;;;;;;;1670289;29;21784;-62
2022/09/09 01:53:17;;;;;;;4.78;3.40;;;;;;;;;;1668191;29;22440;-63
2022/09/09 01:54:09;;;;;;;3.70;2.95;;;;;;;;;;1670345;29;22005;-62
2022/09/09 01:55:01;;;;;;;3.20;2.90;;;;;;;;;;1670839;29;21728;-63
2022/09/09 01:56:08;;;;;;;3.03;2.83;;;;;;;;;;1670440;29;21600;-63
2022/09/09 01:57:11;;;;;;;4.43;3.05;;;;;;;;;;1667917;29;21619;-63
2022/09/09 01:58:20;;;;;;;3.20;2.88;;;;;;;;;;1670543;29;22414;-62
2022/09/09 01:59:27;;;;;;;5.63;2.75;;;;;;;;;;1669109;29;21636;-62
2022/09/09 02:00:20;;;;;;;3.67;2.55;;;;;;;;;;1669519;29;21627;-62
2022/09/09 02:01:23;;;;;;;5.45;3.00;;;;;;;;;;1670440;29;21658;-63
2022/09/09 02:02:19;;;;;;;4.82;3.10;;;;;;;;;;1670508;29;22419;-62
2022/09/09 02:03:23;;;;;;;3.78;3.35;;;;;;;;;;1670452;29;21961;-62
2022/09/09 02:04:33;;;;;;;3.67;2.83;;;;;;;;;;1669576;29;22705;-62
2022/09/09 02:05:30;;;;;;;;;;;;;;;;;;1670126;29;22706;-62
2022/09/09 02:06:29;;;;;;;4.20;2.53;;;;;;;;;;1670638;29;21748;-62
2022/09/09 02:07:38;;;;;;;5.95;3.25;;;;;;;;;;1669839;29;21664;-62
2022/09/09 02:08:41;;;;;;;2.60;2.40;;;;;;;;;;1669140;29;22416;-62
2022/09/09 02:09:32;;;;;;;3.22;2.88;;;;;;;;;;1668711;29;22445;-62
2022/09/09 02:10:31;;;;;;;6.10;3.20;;;;;;;;;;1669657;29;22505;-61
2022/09/09 02:11:25;;;;;;;4.43;3.22;;;;;;;;;;1664391;29;22546;-63
2022/09/09 02:12:24;;;;;;;2.88;2.67;;;;;;;;;;1669146;29;21743;-63
2022/09/09 02:13:19;;;;;;;3.03;2.65;;;;;;;;;;1669082;29;21726;-62
2022/09/09 02:14:17;;;;;;;2.97;2.67;;;;;;;;;;1670590;29;21607;-63
2022/09/09 02:15:19;;;;;;;3.47;2.90;;;;;;;;;;1666763;29;21721;-62
2022/09/09 02:16:19;;;;;;;3.47;3.17;;;;;;;;;;1669483;29;21608;-63
2022/09/09 02:17:14;;;;;;;4.55;3.08;;;;;;;;;;1671859;29;22309;-63
2022/09/09 02:18:10;;;;;;;3.08;2.83;;;;;;;;;;1668558;29;21648;-62
2022/09/09 02:19:07;;;;;;;3.10;2.80;;;;;;;;;;1667693;29;21735;-63
2022/09/09 02:20:07;;;;;;;6.22;2.63;;;;;;;;;;1669886;29;21774;-63
2022/09/09 02:20:59;;;;;;;3.95;2.40;;;;;;;;;;1668866;29;21681;-62
2022/09/09 02:21:55;;;;;;;2.60;2.38;;;;;;;;;;1670438;29;21708;-62
2022/09/09 02:22:49;;;;;;;3.40;2.65;;;;;;;;;;1671117;29;22214;-63
2022/09/09 02:23:43;;;;;;;10.07;3.20;;;;;;;;;;1668776;29;21610;-62
2022/09/09 02:24:39;;;;;;;3.70;3.15;;;;;;;;;;1670455;29;21814;-62
2022/09/09 02:25:32;;;;;;;3.28;2.97;;;;;;;;;;1670867;29;22525;-62
2022/09/09 02:26:25;;;;;;;3.88;2.78;;;;;;;;;;1668852;29;21785;-61
2022/09/09 02:27:21;;;;;;;2.72;2.50;;;;;;;;;;1671286;29;22008;-63
2022/09/09 02:28:15;;;;;;;3.40;3.00;;;;;;;;;;1671487;29;21666;-62
2022/09/09 02:29:12;;;;;;;3.28;2.70;;;;;;;;;;1669953;29;21590;-62
2022/09/09 02:30:05;;;;;;;4.40;2.80;;;;;;;;;;1669340;29;21644;-62
2022/09/09 02:30:58;;;;;;;3.42;2.97;;;;;;;;;;1672252;29;22477;-62
2022/09/09 02:31:51;;;;;;;4.47;3.00;;;;;;;;;;1668916;29;21789;-62
2022/09/09 02:32:44;;;;;;;2.90;2.63;;;;;;;;;;1668308;29;21628;-63
2022/09/09 02:33:41;;;;;;;3.38;2.92;;;;;;;;;;1670500;29;21995;-62
2022/09/09 02:34:37;;;;;;;2.60;2.40;;;;;;;;;;1668521;29;21696;-62
2022/09/09 02:35:31;;;;;;;2.95;2.65;;;;;;;;;;1669455;29;22061;-63
2022/09/09 02:36:29;;;;;;;3.10;2.83;;;;;;;;;;1670319;29;21601;-63
2022/09/09 02:37:25;;;;;;;3.28;2.67;;;;;;;;;;1669510;29;22125;-63
2022/09/09 02:38:18;;;;;;;3.33;3.03;;;;;;;;;;1670529;29;21582;-62
2022/09/09 02:39:10;;;;;;;2.45;2.25;;;;;;;;;;1671535;29;22129;-63
2022/09/09 02:40:03;;;;;;;3.53;3.25;;;;;;;;;;1669823;29;21728;-63
2022/09/09 02:40:55;;;;;;;4.68;3.15;;;;;;;;;;1670149;29;22726;-63
2022/09/09 02:41:48;;;;;;;5.70;2.97;;;;;;;;;;1670308;29;21749;-63
2022/09/09 02:42:43;;;;;;;3.03;2.80;;;;;;;;;;1663759;29;22611;-63
2022/09/09 02:43:36;;;;;;;2.60;2.40;;;;;;;;;;1666318;29;22263;-63
2022/09/09 02:44:28;;;;;;;2.58;2.30;;;;;;;;;;1668048;29;22516;-63
2022/09/09 02:45:25;;;;;;;9.55;2.78;;;;;;;;;;1669352;29;21626;-62
2022/09/09 02:46:36;;;;;;;4.18;2.63;;;;;;;;;;1669398;29;22057;-62
2022/09/09 02:47:36;;;;;;;2.45;2.25;;;;;;;;;;1665667;29;21584;-63
2022/09/09 02:48:31;;;;;;;;;;;;;;;;;;1667456;29;21588;-63
2022/09/09 02:49:37;;;;;;;2.72;2.53;;;;;;;;;;1671796;29;21791;-61
2022/09/09 02:50:33;;;;;;;2.58;2.38;;;;;;;;;;1668655;29;22640;-63
2022/09/09 02:51:34;;;;;;;2.97;2.67;;;;;;;;;;1669882;29;21726;-63
2022/09/09 02:52:38;;;;;;;2.85;2.65;;;;;;;;;;1669473;29;21600;-62
2022/09/09 02:53:42;;;;;;;2.80;2.60;;;;;;;;;;1667324;29;21704;-63
2022/09/09 02:54:36;;;;;;;3.08;2.78;;;;;;;;;;1666559;29;22087;-61
2022/09/09 02:55:39;;;;;;;2.58;2.38;;;;;;;;;;1669092;29;22135;-62
2022/09/09 02:56:36;;;;;;;3.17;2.40;;;;;;;;;;1669152;29;21726;-63
2022/09/09 02:57:31;;;;;;;3.53;2.10;;;;;;;;;;1670488;29;21603;-62
2022/09/09 02:58:25;;;;;;;2.88;2.65;;;;;;;;;;1668956;29;22416;-62
2022/09/09 02:59:18;;;;;;;2.42;2.30;;;;;;;;;;1668447;29;21595;-62
2022/09/09 03:00:11;;;;;;;3.22;2.90;;;;;;;;;;1670320;29;21702;-62
2022/09/09 03:01:03;;;;;;;2.65;2.45;;;;;;;;;;1664306;29;21777;-62
2022/09/09 03:01:54;;;;;;;5.88;2.50;;;;;;;;;;1669061;29;21745;-63
2022/09/09 03:02:47;;;;;;;8.57;2.33;;;;;;;;;;1670087;29;21616;-63
2022/09/09 03:03:38;;;;;;;2.85;2.55;;;;;;;;;;1667626;29;22270;-63
2022/09/09 03:04:30;;;;;;;2.88;2.00;;;;;;;;;;1668907;29;21633;-62
2022/09/09 03:05:22;;;;;;;5.40;2.10;;;;;;;;;;1670263;29;21608;-63
2022/09/09 03:06:14;;;;;;;7.13;2.40;;;;;;;;;;1669623;29;21569;-63
2022/09/09 03:07:05;;;;;;;3.03;2.80;;;;;;;;;;1668704;29;21680;-61
2022/09/09 03:07:57;;;;;;;3.00;2.58;;;;;;;;;;1671023;29;21810;-62
2022/09/09 03:08:49;;;;;;;2.88;2.67;;;;;;;;;;1670006;29;23046;-62
2022/09/09 03:09:41;;;;;;;3.05;2.85;;;;;;;;;;1668545;29;21638;-62
2022/09/09 03:10:33;;;;;;;6.78;2.40;;;;;;;;;;1670196;29;21648;-62
2022/09/09 03:11:25;;;;;;;2.88;2.30;;;;;;;;;;1670091;29;22436;-61
2022/09/09 03:12:16;;;;;;;3.35;2.50;;;;;;;;;;1670440;29;22596;-62
2022/09/09 03:13:08;;;;;;;8.18;2.70;;;;;;;;;;1666979;29;21694;-62
2022/09/09 03:14:02;;;;;;;2.83;2.42;;;;;;;;;;1669197;29;21715;-62
2022/09/09 03:14:54;;;;;;;6.07;2.47;;;;;;;;;;1670686;29;21724;-62
2022/09/09 03:15:45;;;;;;;2.58;2.38;;;;;;;;;;1668618;29;21743;-62
2022/09/09 03:16:38;;;;;;;2.92;2.72;;;;;;;;;;1670266;29;22414;-62
2022/09/09 03:17:29;;;;;;;4.90;2.47;;;;;;;;;;1671325;29;21623;-63
2022/09/09 03:18:21;;;;;;;2.63;2.15;;;;;;;;;;1669630;29;21760;-62
2022/09/09 03:19:12;;;;;;;4.18;2.30;;;;;;;;;;1669351;29;22584;-62
2022/09/09 03:20:05;;;;;;;2.83;2.58;;;;;;;;;;1670341;29;21597;-62
2022/09/09 03:20:57;;;;;;;2.20;2.00;;;;;;;;;;1670229;29;21723;-62
2022/09/09 03:21:49;;;;;;;2.70;2.47;;;;;;;;;;1669964;29;21598;-62
2022/09/09 03:22:40;;;;;;;2.97;2.65;;;;;;;;;;1669287;29;22042;-62
2022/09/09 03:23:32;;;;;;;6.25;2.35;;;;;;;;;;1668563;29;22012;-63
2022/09/09 03:24:24;;;;;;;3.03;2.40;;;;;;;;;;1670292;29;21602;-62
2022/09/09 03:25:17;;;;;;;2.33;1.88;;;;;;;;;;1669560;29;21668;-63
2022/09/09 03:26:08;;;;;;;5.60;1.95;;;;;;;;;;1668446;29;21603;-63
2022/09/09 03:27:01;;;;;;;4.25;2.45;;;;;;;;;;1670322;29;21640;-63
2022/09/09 03:27:54;;;;;;;3.00;2.20;;;;;;;;;;1670185;29;21895;-62
2022/09/09 03:28:46;;;;;;;3.40;2.60;;;;;;;;;;1665932;29;21761;-62
2022/09/09 03:29:39;;;;;;;2.58;2.28;;;;;;;;;;1668724;29;21663;-62
2022/09/09 03:30:31;;;;;;;2.72;2.35;;;;;;;;;;1669039;29;22708;-62
2022/09/09 03:31:22;;;;;;;2.30;2.10;;;;;;;;;;1667934;29;21623;-62
2022/09/09 03:32:15;;;;;;;3.22;2.50;;;;;;;;;;1671109;29;21635;-62
2022/09/09 03:33:06;;;;;;;2.45;2.10;;;;;;;;;;1669466;29;22071;-62
2022/09/09 03:33:59;;;;;;;6.57;2.50;;;;;;;;;;1667736;29;22507;-62
2022/09/09 03:34:50;;;;;;;1.83;1.70;;;;;;;;;;1669944;29;22355;-62
2022/09/09 03:35:48;;;;;;;5.38;2.25;;;;;;;;;;1672242;29;22491;-61
2022/09/09 03:36:41;;;;;;;2.38;2.17;;;;;;;;;;1668405;29;21618;-62
2022/09/09 03:37:32;;;;;;;2.47;2.28;;;;;;;;;;1670151;29;21600;-63
2022/09/09 03:38:25;;;;;;;2.97;2.47;;;;;;;;;;1670088;29;21658;-62
2022/09/09 03:39:16;;;;;;;2.30;2.20;;;;;;;;;;1667576;29;21678;-62
2022/09/09 03:40:10;;;;;;;2.60;2.40;;;;;;;;;;1670257;29;22553;-63
2022/09/09 03:41:02;;;;;;;1.90;1.80;;;;;;;;;;1667328;29;22500;-63
2022/09/09 03:41:54;;;;;;;4.47;1.88;;;;;;;;;;1666831;29;21720;-62
2022/09/09 03:42:45;;;;;;;2.40;2.20;;;;;;;;;;1670868;29;22408;-62
2022/09/09 03:43:37;;;;;;;2.65;1.90;;;;;;;;;;1670679;29;22526;-63
2022/09/09 03:44:28;;;;;;;7.22;2.00;;;;;;;;;;1668045;29;22040;-62
2022/09/09 03:45:21;;;;;;;2.38;2.10;;;;;;;;;;1669633;29;22031;-61
2022/09/09 03:46:13;;;;;;;3.90;2.22;;;;;;;;;;1671244;29;21707;-63
2022/09/09 03:47:06;;;;;;;2.30;2.10;;;;;;;;;;1668339;29;21706;-61
2022/09/09 03:47:57;;;;;;;2.47;2.25;;;;;;;;;;1669379;29;22485;-63
2022/09/09 03:48:49;;;;;;;2.53;2.33;;;;;;;;;;1671327;29;22427;-63
2022/09/09 03:49:40;;;;;;;2.25;1.77;;;;;;;;;;1668418;29;22535;-62
2022/09/09 03:50:33;;;;;;;2.95;2.67;;;;;;;;;;1669991;29;22535;-63
2022/09/09 03:51:24;;;;;;;2.05;1.85;;;;;;;;;;1671044;29;21609;-63
2022/09/09 03:52:18;;;;;;;2.35;2.15;;;;;;;;;;1670124;29;22265;-63
2022/09/09 03:53:09;;;;;;;4.80;1.80;;;;;;;;;;1667383;29;21628;-64
2022/09/09 03:54:01;;;;;;;2.05;1.90;;;;;;;;;;1668989;29;22003;-63
2022/09/09 03:54:53;;;;;;;2.08;1.98;;;;;;;;;;1670204;29;21590;-63
2022/09/09 03:55:46;;;;;;;3.40;2.20;;;;;;;;;;1667535;29;22097;-63
2022/09/09 03:56:37;;;;;;;2.20;1.98;;;;;;;;;;1669548;29;21919;-62
2022/09/09 03:57:30;;;;;;;2.33;2.13;;;;;;;;;;1669823;29;22026;-63
2022/09/09 03:58:23;;;;;;;4.00;2.00;;;;;;;;;;1669411;29;21893;-63
2022/09/09 03:59:16;;;;;;;3.65;1.73;;;;;;;;;;1670295;29;22888;-62
2022/09/09 04:00:09;;;;;;;3.65;2.40;;;;;;;;;;1669973;29;22412;-62
2022/09/09 04:01:06;;;;;;;1.98;1.85;;;;;;;;;;1669169;29;22009;-62
2022/09/09 04:01:58;;;;;;;2.90;2.00;;;;;;;;;;1670919;29;21575;-62
2022/09/09 04:02:56;;;;;;;2.75;1.60;;;;;;;;;;1669653;29;21645;-62
2022/09/09 04:03:47;;;;;;;2.22;2.00;;;;;;;;;;1667001;29;22379;-63
2022/09/09 04:04:40;;;;;;;1.90;1.80;;;;;;;;;;1669906;29;21637;-63
2022/09/09 04:05:33;;;;;;;2.20;1.85;;;;;;;;;;1670035;29;21710;-63
2022/09/09 04:06:26;;;;;;;2.80;1.90;;;;;;;;;;1668524;29;21874;-62
2022/09/09 04:07:17;;;;;;;1.90;1.80;;;;;;;;;;1669610;29;21649;-62
2022/09/09 04:08:11;;;;;;;2.25;2.05;;;;;;;;;;1669936;29;22675;-61
2022/09/09 04:09:02;;;;;;;3.58;2.40;;;;;;;;;;1668680;29;22070;-63
2022/09/09 04:09:55;;;;;;;3.22;1.63;;;;;;;;;;1669350;29;21675;-62
2022/09/09 04:10:46;;;;;;;2.05;1.95;;;;;;;;;;1669746;29;21711;-62
2022/09/09 04:11:39;;;;;;;3.42;2.00;;;;;;;;;;1670059;29;22394;-62
2022/09/09 04:12:30;;;;;;;2.00;1.90;;;;;;;;;;1671895;29;22193;-63
2022/09/09 04:13:22;;;;;;;3.35;2.42;;;;;;;;;;1667849;29;21937;-63
2022/09/09 04:14:13;;;;;;;2.15;1.92;;;;;;;;;;1665905;29;22957;-62
2022/09/09 04:15:07;;;;;;;2.40;1.88;;;;;;;;;;1672135;29;21963;-62
2022/09/09 04:16:01;;;;;;;2.10;1.88;;;;;;;;;;1668437;29;21914;-63
2022/09/09 04:16:53;;;;;;;2.78;2.15;;;;;;;;;;1667241;29;22177;-63
2022/09/09 04:17:44;;;;;;;2.22;2.03;;;;;;;;;;1670027;29;21878;-63
2022/09/09 04:18:37;;;;;;;3.97;1.85;;;;;;;;;;1668790;29;21685;-62
2022/09/09 04:19:28;;;;;;;2.08;1.88;;;;;;;;;;1669324;29;22534;-62
2022/09/09 04:20:20;;;;;;;2.10;1.88;;;;;;;;;;1669902;29;22525;-63
2022/09/09 04:21:12;;;;;;;5.25;2.22;;;;;;;;;;1670043;29;22484;-62
2022/09/09 04:22:05;;;;;;;4.57;1.58;;;;;;;;;;1670046;29;22012;-62
2022/09/09 04:22:56;;;;;;;5.80;1.95;;;;;;;;;;1668561;29;22247;-62
2022/09/09 04:23:48;;;;;;;2.30;1.50;;;;;;;;;;1668274;29;21666;-63
2022/09/09 04:24:39;;;;;;;1.90;1.80;;;;;;;;;;1669742;29;22413;-63
2022/09/09 04:25:32;;;;;;;1.67;1.58;;;;;;;;;;1669715;29;22456;-63
2022/09/09 04:26:23;;;;;;;2.25;2.03;;;;;;;;;;1668987;29;22120;-63
2022/09/09 04:27:16;;;;;;;1.85;1.65;;;;;;;;;;1670103;29;22044;-63
2022/09/09 04:28:07;;;;;;;2.53;1.60;;;;;;;;;;1664052;29;22417;-62
2022/09/09 04:28:59;;;;;;;2.42;1.70;;;;;;;;;;1668921;29;21974;-63
2022/09/09 04:29:51;;;;;;;2.95;2.33;;;;;;;;;;1669956;29;21655;-62
2022/09/09 04:30:43;;;;;;;1.52;1.42;;;;;;;;;;1668023;29;21568;-63
2022/09/09 04:31:41;;;;;;;1.92;1.73;;;;;;;;;;1668796;29;21621;-63
2022/09/09 04:32:32;;;;;;;2.10;1.90;;;;;;;;;;1669982;29;21795;-62
2022/09/09 04:33:26;;;;;;;1.80;1.70;;;;;;;;;;1668906;29;22440;-62
2022/09/09 04:34:17;;;;;;;1.80;1.70;;;;;;;;;;1669731;29;21745;-64
2022/09/09 04:35:09;;;;;;;3.78;2.17;;;;;;;;;;1669946;29;21600;-63
2022/09/09 04:36:01;;;;;;;2.22;1.75;;;;;;;;;;1669517;29;21641;-63
2022/09/09 04:36:54;;;;;;;1.95;1.70;;;;;;;;;;1668354;29;21666;-63
2022/09/09 04:37:45;;;;;;;2.13;1.60;;;;;;;;;;1669515;29;21606;-62
2022/09/09 04:38:37;;;;;;;1.70;1.60;;;;;;;;;;1668933;29;21724;-62
2022/09/09 04:39:29;;;;;;;1.92;1.73;;;;;;;;;;1668287;29;22283;-63
2022/09/09 04:40:22;;;;;;;2.03;1.80;;;;;;;;;;1669951;29;21618;-62
2022/09/09 04:41:13;;;;;;;2.15;1.88;;;;;;;;;;1669422;29;21778;-62
2022/09/09 04:42:05;;;;;;;2.05;1.85;;;;;;;;;;1668830;29;21985;-62
2022/09/09 04:42:58;;;;;;;1.98;1.88;;;;;;;;;;1668708;29;22203;-62
2022/09/09 04:43:53;;;;;;;2.05;1.85;;;;;;;;;;1669007;29;21636;-63
2022/09/09 04:44:44;;;;;;;1.88;1.77;;;;;;;;;;1668354;29;21969;-63
2022/09/09 04:45:37;;;;;;;1.70;1.60;;;;;;;;;;1669862;29;22578;-63
2022/09/09 04:46:28;;;;;;;1.77;1.67;;;;;;;;;;1669966;29;21822;-62
2022/09/09 04:47:21;;;;;;;1.80;1.70;;;;;;;;;;1667448;29;21590;-63
2022/09/09 04:48:13;;;;;;;1.88;1.60;;;;;;;;;;1670215;29;22459;-62
2022/09/09 04:49:05;;;;;;;1.70;1.60;;;;;;;;;;1670962;29;21696;-62
2022/09/09 04:49:57;;;;;;;1.48;1.38;;;;;;;;;;1667301;29;22238;-63
2022/09/09 04:50:59;;;;;;;1.95;1.70;;;;;;;;;;1669824;29;21607;-63
2022/09/09 04:51:51;;;;;;;1.63;1.52;;;;;;;;;;1671199;29;21556;-62
2022/09/09 04:52:43;;;;;;;1.90;1.80;;;;;;;;;;1668667;29;21658;-62
2022/09/09 04:53:35;;;;;;;2.00;1.45;;;;;;;;;;1667784;29;21613;-62
2022/09/09 04:54:27;;;;;;;1.92;1.40;;;;;;;;;;1670967;29;21584;-63
2022/09/09 04:55:18;;;;;;;2.25;2.05;;;;;;;;;;1669041;29;21599;-63
2022/09/09 04:56:13;;;;;;;1.60;1.50;;;;;;;;;;1668202;29;21648;-62
2022/09/09 04:57:05;;;;;;;3.10;1.75;;;;;;;;;;1669812;29;21615;-63
2022/09/09 04:57:57;;;;;;;1.90;1.20;;;;;;;;;;1669397;29;22465;-62
2022/09/09 04:58:49;;;;;;;1.73;1.63;;;;;;;;;;1667994;29;21662;-63
2022/09/09 04:59:41;;;;;;;2.92;1.70;;;;;;;;;;1670928;29;21640;-63
2022/09/09 05:00:33;;;;;;;1.60;1.35;;;;;;;;;;1669432;29;21652;-63
2022/09/09 05:01:26;;;;;;;1.48;1.35;;;;;;;;;;1668191;29;21757;-63
2022/09/09 05:02:18;;;;;;;2.53;1.80;;;;;;;;;;1669757;29;22495;-63
2022/09/09 05:03:12;;;;;;;2.08;1.58;;;;;;;;;;1668295;29;21747;-64
2022/09/09 05:04:03;;;;;;;1.88;1.33;;;;;;;;;;1667803;29;21660;-62
2022/09/09 05:04:55;;;;;;;1.42;1.30;;;;;;;;;;1670962;29;22589;-62
2022/09/09 05:05:47;;;;;;;1.52;1.40;;;;;;;;;;1669673;29;22809;-63
2022/09/09 05:06:39;;;;;;;1.75;1.63;;;;;;;;;;1668001;29;22008;-62
2022/09/09 05:07:31;;;;;;;2.28;1.40;;;;;;;;;;1670751;29;21596;-62
2022/09/09 05:08:23;;;;;;;1.67;1.58;;;;;;;;;;1669656;29;21778;-62
2022/09/09 05:09:15;;;;;;;1.75;1.45;;;;;;;;;;1667426;29;22292;-62
2022/09/09 05:10:07;;;;;;;1.38;1.27;;;;;;;;;;1671514;29;21857;-63
2022/09/09 05:11:00;;;;;;;1.60;1.48;;;;;;;;;;1669736;29;22167;-63
2022/09/09 05:11:51;;;;;;;2.45;2.25;;;;;;;;;;1667459;29;21710;-62
2022/09/09 05:12:43;;;;;;;2.10;1.50;;;;;;;;;;1669541;29;21629;-63
2022/09/09 05:13:34;;;;;;;1.85;1.45;;;;;;;;;;1668260;29;22389;-62
2022/09/09 05:14:27;;;;;;;1.50;1.40;;;;;;;;;;1667950;29;21911;-63
2022/09/09 05:15:20;;;;;;;2.90;1.40;;;;;;;;;;1671393;29;21545;-62
2022/09/09 05:16:12;;;;;;;2.05;1.60;;;;;;;;;;1668819;29;22024;-62
2022/09/09 05:17:04;;;;;;;1.60;1.45;;;;;;;;;;1668075;29;21681;-63
2022/09/09 05:18:00;;;;;;;1.52;1.15;;;;;;;;;;1669140;29;21637;-63
2022/09/09 05:18:52;;;;;;;4.15;1.50;;;;;;;;;;1668439;29;21667;-63
2022/09/09 05:19:44;;;;;;;1.67;1.58;;;;;;;;;;1665624;29;21600;-62
2022/09/09 05:20:36;;;;;;;2.67;1.55;;;;;;;;;;1669259;29;21594;-63
2022/09/09 05:21:28;;;;;;;1.50;1.13;;;;;;;;;;1669680;29;22581;-63
2022/09/09 05:22:20;;;;;;;1.50;1.40;;;;;;;;;;1669774;29;22478;-63
2022/09/09 05:23:13;;;;;;;1.50;1.40;;;;;;;;;;1667377;29;22183;-62
2022/09/09 05:24:04;;;;;;;1.50;1.40;;;;;;;;;;1668722;29;21693;-63
2022/09/09 05:24:56;;;;;;;1.65;1.20;;;;;;;;;;1669642;29;22482;-62
2022/09/09 05:25:56;;;;;;;1.92;1.40;;;;;;;;;;1667302;29;21727;-63
2022/09/09 05:26:48;;;;;;;1.35;1.25;;;;;;;;;;1668112;29;21606;-64
2022/09/09 05:27:39;;;;;;;1.77;1.40;;;;;;;;;;1670996;29;21607;-61
2022/09/09 05:28:32;;;;;;;2.08;1.83;;;;;;;;;;1667955;29;22022;-62
2022/09/09 05:29:23;;;;;;;3.33;1.35;;;;;;;;;;1670173;29;22467;-61
2022/09/09 05:30:15;;;;;;;3.67;1.40;;;;;;;;;;1670812;29;21618;-64
2022/09/09 05:31:09;;;;;;;1.65;1.55;;;;;;;;;;1669517;29;22202;-63
2022/09/09 05:32:01;;;;;;;1.42;1.27;;;;;;;;;;1670399;29;21659;-63
2022/09/09 05:32:55;;;;;;;1.40;1.20;;;;;;;;;;1670157;29;21663;-63